Time;durP1;ratioP1;P1;durP2;ratioP2;P2;SDS_P1;SDS_P2;PMS_P1;PMS_P2;Temp;Humidity;BMP_temperature;BMP_pressure;BME280_temperature;BME280_humidity;BME280_pressure;Samples;Min_cycle;Max_cycle;Signal;HPM_P1;HPM_P2
2023/12/05 00:00:08;;;;;;;9.82;5.30;;;;;;;1.53;100.00;100759.66;5059736;28;20504;-69
2023/12/05 00:02:33;;;;;;;9.88;5.00;;;;;;;1.54;100.00;100758.75;5063464;28;20044;-70
2023/12/05 00:04:59;;;;;;;10.50;4.80;;;;;;;1.54;100.00;100738.22;5057131;28;20033;-69
2023/12/05 00:07:25;;;;;;;9.07;4.53;;;;;;;1.55;100.00;100732.16;5049344;28;20063;-69
2023/12/05 00:09:51;;;;;;;7.70;3.80;;;;;;;1.55;100.00;100723.63;5052348;28;20037;-69
2023/12/05 00:12:16;;;;;;;5.18;3.03;;;;;;;1.53;100.00;100720.31;5049151;28;20040;-69
2023/12/05 00:14:42;;;;;;;10.02;3.05;;;;;;;1.50;100.00;100717.91;5051187;28;20049;-69
2023/12/05 00:17:08;;;;;;;7.85;3.58;;;;;;;1.48;100.00;100718.00;5053130;28;20035;-69
2023/12/05 00:19:33;;;;;;;4.70;2.25;;;;;;;1.49;100.00;100717.09;5050517;28;20185;-69
2023/12/05 00:21:58;;;;;;;6.47;3.38;;;;;;;1.50;100.00;100707.63;5051874;28;20466;-69
2023/12/05 00:24:24;;;;;;;5.88;2.25;;;;;;;1.53;100.00;100702.34;5049373;28;20041;-69
2023/12/05 00:26:49;;;;;;;10.57;3.80;;;;;;;1.55;100.00;100706.50;5051148;28;20025;-69
2023/12/05 00:29:15;;;;;;;7.00;2.67;;;;;;;1.58;100.00;100695.22;5052907;28;21246;-69
2023/12/05 00:31:41;;;;;;;5.95;2.45;;;;;;;1.57;100.00;100694.41;5050383;28;20032;-69
2023/12/05 00:34:06;;;;;;;4.22;1.92;;;;;;;1.56;100.00;100692.75;5052337;28;20036;-69
2023/12/05 00:36:32;;;;;;;5.65;2.67;;;;;;;1.56;100.00;100686.78;5052109;28;20045;-69
2023/12/05 00:38:57;;;;;;;5.00;2.47;;;;;;;1.56;100.00;100686.78;5052984;28;20090;-69
2023/12/05 00:41:25;;;;;;;6.07;2.63;;;;;;;1.58;100.00;100685.78;5054619;28;20058;-69
2023/12/05 00:43:51;;;;;;;5.85;2.67;;;;;;;1.57;100.00;100679.00;5055119;28;20043;-69
2023/12/05 00:46:16;;;;;;;6.90;2.67;;;;;;;1.56;100.00;100687.59;5055943;28;20036;-68
2023/12/05 00:48:42;;;;;;;4.93;2.30;;;;;;;1.58;100.00;100684.94;5069051;28;20474;-69
2023/12/05 00:51:08;;;;;;;6.70;2.08;;;;;;;1.57;100.00;100681.56;5059363;28;20029;-68
2023/12/05 00:53:34;;;;;;;4.82;1.90;;;;;;;1.59;100.00;100686.63;5055740;28;20492;-69
2023/12/05 00:55:59;;;;;;;5.65;2.50;;;;;;;1.56;100.00;100682.47;5055965;28;20039;-69
2023/12/05 00:58:25;;;;;;;5.65;2.22;;;;;;;1.55;100.00;100685.94;5054775;28;20025;-69
2023/12/05 01:00:50;;;;;;;3.72;1.88;;;;;;;1.52;100.00;100682.72;5055902;28;21144;-69
2023/12/05 01:03:16;;;;;;;8.32;2.60;;;;;;;1.51;100.00;100673.34;5066510;28;20060;-69
2023/12/05 01:05:41;;;;;;;7.50;2.80;;;;;;;1.54;100.00;100668.06;5055798;28;20137;-69
2023/12/05 01:08:06;;;;;;;6.65;2.75;;;;;;;1.59;100.00;100672.03;5065017;28;20534;-69
2023/12/05 01:10:32;;;;;;;5.15;2.63;;;;;;;1.64;100.00;100664.91;5053083;28;20174;-69
2023/12/05 01:12:57;;;;;;;8.38;3.45;;;;;;;1.69;100.00;100668.97;5035366;28;20037;-69
2023/12/05 01:15:23;;;;;;;8.23;3.67;;;;;;;1.69;100.00;100666.41;5052164;28;20083;-69
2023/12/05 01:17:48;;;;;;;8.38;3.63;;;;;;;1.67;100.00;100664.75;5062199;28;20024;-69
2023/12/05 01:20:14;;;;;;;8.45;4.43;;;;;;;1.71;100.00;100672.28;5062568;28;20033;-69
2023/12/05 01:22:39;;;;;;;8.05;4.40;;;;;;;1.69;100.00;100666.41;5052025;28;20116;-69
2023/12/05 01:25:08;;;;;;;12.60;3.83;;;;;;;1.61;100.00;100674.50;5055777;28;20029;-69
2023/12/05 01:27:34;;;;;;;8.77;4.05;;;;;;;1.61;100.00;100672.78;5052102;28;20067;-69
2023/12/05 01:29:59;;;;;;;8.18;3.67;;;;;;;1.61;100.00;100674.50;5056865;28;20384;-69
2023/12/05 01:32:25;;;;;;;7.05;3.60;;;;;;;1.59;100.00;100673.78;5061930;28;20035;-69
2023/12/05 01:34:50;;;;;;;9.52;3.90;;;;;;;1.56;100.00;100667.06;5056012;28;20029;-69
2023/12/05 01:37:16;;;;;;;10.88;3.58;;;;;;;1.60;100.00;100673.69;5055071;28;20033;-69
2023/12/05 01:39:41;;;;;;;6.75;2.95;;;;;;;1.64;100.00;100670.03;5052422;28;20053;-69
2023/12/05 01:42:06;;;;;;;5.53;1.95;;;;;;;1.64;100.00;100667.47;5057273;28;20036;-69
2023/12/05 01:44:32;;;;;;;5.45;2.05;;;;;;;1.66;100.00;100669.97;5054135;28;20234;-69
2023/12/05 01:46:59;;;;;;;6.53;2.53;;;;;;;1.68;100.00;100668.16;5053198;28;20040;-69
2023/12/05 01:49:25;;;;;;;4.35;2.38;;;;;;;1.71;100.00;100664.59;5056212;28;20090;-69
2023/12/05 01:51:52;;;;;;;10.27;2.53;;;;;;;1.73;100.00;100662.75;5059946;28;20028;-69
2023/12/05 01:54:18;;;;;;;5.90;2.33;;;;;;;1.73;100.00;100657.63;5057210;28;20033;-69
2023/12/05 01:56:44;;;;;;;6.15;2.78;;;;;;;1.73;100.00;100662.75;5061490;28;20093;-69
2023/12/05 01:59:10;;;;;;;3.25;1.63;;;;;;;1.70;100.00;100657.78;5052161;28;20158;-69
2023/12/05 02:01:36;;;;;;;6.75;2.40;;;;;;;1.67;100.00;100648.50;5053990;28;20036;-69
2023/12/05 02:04:02;;;;;;;7.32;3.13;;;;;;;1.67;100.00;100645.94;5061184;28;20032;-68
2023/12/05 02:06:28;;;;;;;5.78;2.05;;;;;;;1.67;100.00;100641.63;5068368;28;20047;-69
2023/12/05 02:08:54;;;;;;;4.70;2.03;;;;;;;1.69;100.00;100651.00;5064979;28;20123;-69
2023/12/05 02:11:19;;;;;;;7.90;2.22;;;;;;;1.67;100.00;100644.19;5062221;28;20116;-69
2023/12/05 02:13:47;;;;;;;5.97;2.13;;;;;;;1.70;100.00;100642.38;5064539;28;20044;-69
2023/12/05 02:16:34;;;;;;;6.10;2.53;;;;;;;1.70;100.00;100637.25;5048970;28;20040;-69
2023/12/05 02:19:40;;;;;;;8.25;2.53;;;;;;;1.69;100.00;100625.31;5061997;28;20029;-69
2023/12/05 02:22:31;;;;;;;8.07;3.38;;;;;;;1.68;100.00;100619.34;5035540;28;20045;-69
2023/12/05 02:25:14;;;;;;;12.27;5.43;;;;;;;1.68;100.00;100624.47;5035313;28;20037;-69
2023/12/05 02:27:41;;;;;;;7.93;3.45;;;;;;;1.68;100.00;100619.34;5065914;28;20090;-69
2023/12/05 02:30:09;;;;;;;5.10;2.08;;;;;;;1.65;100.00;100617.78;5063208;28;20083;-69
2023/12/05 02:32:35;;;;;;;7.28;2.55;;;;;;;1.64;100.00;100608.41;5053923;28;20047;-69
2023/12/05 02:35:02;;;;;;;5.30;2.05;;;;;;;1.62;100.00;100607.66;5053241;28;20037;-69
2023/12/05 02:37:39;;;;;;;5.05;2.67;;;;;;;1.61;100.00;100608.56;5049931;28;20504;-69
2023/12/05 02:40:13;;;;;;;3.83;1.80;;;;;;;1.60;100.00;100600.94;5053238;28;20041;-69
2023/12/05 02:42:41;;;;;;;5.68;1.27;;;;;;;1.59;100.00;100589.84;5043842;28;20037;-69
2023/12/05 02:45:15;;;;;;;6.93;1.70;;;;;;;1.59;100.00;100584.72;5051541;28;20042;-68
2023/12/05 02:47:44;;;;;;;4.03;1.63;;;;;;;1.58;100.00;100577.91;5054641;28;20036;-68
2023/12/05 02:50:09;;;;;;;5.63;2.15;;;;;;;1.55;100.00;100572.94;5054717;28;20045;-69
2023/12/05 02:52:35;;;;;;;4.30;1.30;;;;;;;1.53;100.00;100572.22;5051137;28;20394;-68
2023/12/05 02:55:00;;;;;;;4.22;1.85;;;;;;;1.51;100.00;100568.91;5052297;28;20060;-69
2023/12/05 02:57:26;;;;;;;5.05;2.40;;;;;;;1.51;100.00;100566.31;5050862;28;20025;-68
2023/12/05 02:59:51;;;;;;;5.85;2.15;;;;;;;1.49;100.00;100563.00;5054563;28;20029;-68
2023/12/05 03:02:17;;;;;;;4.43;2.03;;;;;;;1.51;100.00;100570.63;5051253;28;20033;-69
2023/12/05 03:04:42;;;;;;;7.35;2.70;;;;;;;1.53;100.00;100566.25;5052056;28;20048;-69
2023/12/05 03:07:08;;;;;;;6.28;1.38;;;;;;;1.54;100.00;100565.34;5054677;28;20470;-69
2023/12/05 03:09:33;;;;;;;5.03;1.70;;;;;;;1.53;100.00;100554.22;5051222;28;20041;-68
2023/12/05 03:11:59;;;;;;;6.05;1.77;;;;;;;1.53;100.00;100554.22;5051386;28;20029;-69
2023/12/05 03:14:24;;;;;;;6.65;2.00;;;;;;;1.54;100.00;100555.06;5050127;28;20179;-68
2023/12/05 03:16:49;;;;;;;5.10;2.20;;;;;;;1.55;100.00;100552.41;5052936;28;20037;-68
2023/12/05 03:19:16;;;;;;;8.30;2.20;;;;;;;1.58;100.00;100551.41;5049175;28;20024;-69
2023/12/05 03:21:41;;;;;;;6.03;1.92;;;;;;;1.56;100.00;100546.34;5049818;28;20413;-69
2023/12/05 03:24:07;;;;;;;6.47;2.25;;;;;;;1.57;100.00;100549.75;5051627;28;20025;-69
2023/12/05 03:26:32;;;;;;;6.38;2.47;;;;;;;1.56;100.00;100543.78;5051064;28;20428;-69
2023/12/05 03:28:58;;;;;;;3.22;1.50;;;;;;;1.54;100.00;100540.47;5052076;28;20063;-69
2023/12/05 03:31:23;;;;;;;4.47;1.45;;;;;;;1.54;100.00;100535.34;5052108;28;20024;-69
2023/12/05 03:33:49;;;;;;;4.63;2.05;;;;;;;1.55;100.00;100536.16;5054205;28;20024;-69
2023/12/05 03:36:14;;;;;;;4.28;1.80;;;;;;;1.55;100.00;100538.75;5050905;28;20037;-69
2023/12/05 03:38:40;;;;;;;4.10;1.73;;;;;;;1.58;100.00;100536.81;5053170;28;20115;-69
2023/12/05 03:41:07;;;;;;;5.75;2.08;;;;;;;1.63;100.00;100544.28;5050513;28;20090;-69
2023/12/05 03:43:33;;;;;;;3.03;1.45;;;;;;;1.66;100.00;100533.84;5050815;28;20032;-69
2023/12/05 03:45:58;;;;;;;5.88;1.90;;;;;;;1.68;100.00;100534.56;5052817;28;20044;-69
2023/12/05 03:48:24;;;;;;;3.08;1.25;;;;;;;1.71;100.00;100536.16;5051916;28;20410;-69
2023/12/05 03:50:49;;;;;;;4.18;1.40;;;;;;;1.74;100.00;100535.97;5053457;28;20382;-69
2023/12/05 03:53:15;;;;;;;5.70;2.05;;;;;;;1.77;100.00;100535.81;5039067;28;20037;-69
2023/12/05 03:55:40;;;;;;;4.75;1.52;;;;;;;1.80;100.00;100538.19;5052592;28;20112;-69
2023/12/05 03:58:05;;;;;;;3.60;1.27;;;;;;;1.83;100.00;100531.16;5050952;28;20032;-69
2023/12/05 04:00:31;;;;;;;3.08;1.67;;;;;;;1.85;100.00;100531.06;5052180;28;20029;-69
2023/12/05 04:02:56;;;;;;;7.15;1.55;;;;;;;1.90;100.00;100522.16;5051136;28;20059;-69
2023/12/05 04:05:22;;;;;;;4.30;1.90;;;;;;;1.96;100.00;100526.94;5051215;28;20021;-69
2023/12/05 04:07:48;;;;;;;5.13;2.80;;;;;;;1.97;100.00;100518.31;5052050;28;20029;-69
2023/12/05 04:10:13;;;;;;;4.68;2.20;;;;;;;1.95;100.00;100524.47;5052710;28;20032;-69
2023/12/05 04:12:39;;;;;;;5.70;1.73;;;;;;;1.89;100.00;100517.94;5051241;28;20171;-69
2023/12/05 04:15:06;;;;;;;5.60;1.90;;;;;;;1.86;100.00;100518.13;5055828;28;20124;-69
2023/12/05 04:17:31;;;;;;;4.72;1.50;;;;;;;1.80;100.00;100510.78;5055416;28;21242;-68
2023/12/05 04:19:57;;;;;;;2.75;1.00;;;;;;;1.80;100.00;100504.81;5057514;28;20058;-69
2023/12/05 04:22:22;;;;;;;3.00;1.30;;;;;;;1.86;100.00;100496.75;5056340;28;20043;-68
2023/12/05 04:24:47;;;;;;;4.53;1.23;;;;;;;1.89;100.00;100499.16;5039242;28;20032;-68
2023/12/05 04:27:13;;;;;;;4.60;1.58;;;;;;;1.90;100.00;100493.06;5057216;28;21746;-69
2023/12/05 04:29:39;;;;;;;3.72;1.17;;;;;;;1.93;100.00;100495.47;5055072;28;20044;-69
2023/12/05 04:32:05;;;;;;;4.38;2.13;;;;;;;1.94;100.00;100502.25;5057963;28;20036;-69
2023/12/05 04:34:30;;;;;;;2.58;1.50;;;;;;;1.92;100.00;100493.81;5053799;28;20028;-69
2023/12/05 04:36:56;;;;;;;6.88;3.58;;;;;;;1.93;100.00;100498.84;5058079;28;20041;-69
2023/12/05 04:39:21;;;;;;;3.50;1.48;;;;;;;1.94;100.00;100494.53;5053768;28;20039;-68
2023/12/05 04:41:46;;;;;;;4.47;1.63;;;;;;;1.97;100.00;100492.63;5055976;28;20440;-68
2023/12/05 04:44:12;;;;;;;4.93;1.30;;;;;;;1.94;100.00;100494.53;5054298;28;20039;-69
2023/12/05 04:46:37;;;;;;;2.83;1.13;;;;;;;1.95;100.00;100497.03;5054312;28;20059;-68
2023/12/05 04:49:03;;;;;;;2.55;1.15;;;;;;;1.98;100.00;100498.59;5052833;28;20398;-69
2023/12/05 04:51:29;;;;;;;5.45;1.45;;;;;;;1.96;100.00;100485.81;5053830;28;20508;-68
2023/12/05 04:53:55;;;;;;;3.42;1.25;;;;;;;1.96;100.00;100474.72;5039897;28;20035;-69
2023/12/05 04:56:20;;;;;;;3.63;0.90;;;;;;;1.96;100.00;100475.53;5038784;28;20375;-69
2023/12/05 04:58:45;;;;;;;2.78;1.48;;;;;;;1.95;100.00;100473.06;5053960;28;21263;-69
2023/12/05 05:01:11;;;;;;;5.70;1.02;;;;;;;1.95;100.00;100473.91;5052620;28;20045;-68
2023/12/05 05:03:36;;;;;;;3.95;1.23;;;;;;;1.95;100.00;100467.94;5052136;28;20420;-69
2023/12/05 05:06:02;;;;;;;2.10;1.10;;;;;;;1.94;100.00;100468.84;5053243;28;20063;-69
2023/12/05 05:08:28;;;;;;;3.35;1.05;;;;;;;1.95;100.00;100467.94;5053568;28;20277;-69
2023/12/05 05:10:53;;;;;;;4.22;1.30;;;;;;;1.97;100.00;100471.22;5054694;28;20036;-69
2023/12/05 05:13:18;;;;;;;8.18;2.33;;;;;;;2.00;100.00;100463.34;5051830;28;20051;-69
2023/12/05 05:15:44;;;;;;;4.22;1.92;;;;;;;2.04;100.00;100448.56;5053891;28;20093;-68
2023/12/05 05:18:10;;;;;;;3.53;1.67;;;;;;;2.06;100.00;100444.19;5053899;28;20051;-70
2023/12/05 05:20:35;;;;;;;5.38;1.65;;;;;;;2.08;100.00;100442.34;5038944;28;20052;-69
2023/12/05 05:23:01;;;;;;;3.75;1.50;;;;;;;2.09;100.00;100438.84;5057927;28;20035;-69
2023/12/05 05:25:26;;;;;;;3.00;1.23;;;;;;;2.09;100.00;100449.13;5061233;28;20056;-70
2023/12/05 05:27:51;;;;;;;2.53;1.15;;;;;;;2.08;100.00;100438.03;5061689;28;20105;-69
2023/12/05 05:30:17;;;;;;;2.40;1.02;;;;;;;2.06;100.00;100439.88;5066482;28;20032;-69
2023/12/05 05:32:43;;;;;;;4.32;1.00;;;;;;;2.07;100.00;100450.97;5060028;28;20033;-69
2023/12/05 05:35:09;;;;;;;2.97;0.85;;;;;;;2.07;100.00;100446.66;5052562;28;20387;-70
2023/12/05 05:37:34;;;;;;;5.93;1.08;;;;;;;2.09;100.00;100444.81;5053419;28;20040;-69
2023/12/05 05:40:00;;;;;;;4.72;0.95;;;;;;;2.12;100.00;100443.81;5051651;28;20040;-69
2023/12/05 05:42:25;;;;;;;2.88;0.95;;;;;;;2.17;100.00;100452.91;5055526;28;20102;-70
2023/12/05 05:44:51;;;;;;;5.95;1.48;;;;;;;2.22;100.00;100450.88;5061811;28;20029;-69
2023/12/05 05:47:16;;;;;;;6.03;2.22;;;;;;;2.25;100.00;100445.56;5050895;28;20040;-69
2023/12/05 05:49:42;;;;;;;3.38;1.55;;;;;;;2.25;100.00;100445.56;5051558;28;20048;-69
2023/12/05 05:52:08;;;;;;;4.00;1.60;;;;;;;2.26;100.00;100449.78;5059386;28;20482;-69
2023/12/05 05:54:33;;;;;;;3.75;1.73;;;;;;;2.25;100.00;100453.28;5051823;28;20033;-69
2023/12/05 05:56:59;;;;;;;6.30;1.98;;;;;;;2.25;100.00;100455.84;5051359;28;20039;-69
2023/12/05 05:59:24;;;;;;;3.33;1.10;;;;;;;2.26;100.00;100451.53;5050770;28;20029;-70
2023/12/05 06:01:50;;;;;;;7.50;1.92;;;;;;;2.25;100.00;100445.56;5040464;28;20037;-69
2023/12/05 06:04:15;;;;;;;4.13;1.75;;;;;;;2.26;100.00;100446.41;5052709;28;20047;-69
2023/12/05 06:06:40;;;;;;;2.22;1.10;;;;;;;2.27;100.00;100454.00;5051841;28;20027;-69
2023/12/05 06:09:06;;;;;;;5.18;2.03;;;;;;;2.26;100.00;100449.78;5058511;28;20039;-69
2023/12/05 06:11:31;;;;;;;4.45;1.52;;;;;;;2.27;100.00;100451.44;5051100;28;20061;-70
2023/12/05 06:13:57;;;;;;;4.53;2.05;;;;;;;2.27;100.00;100448.88;5051358;28;20033;-69
2023/12/05 06:16:22;;;;;;;4.15;1.35;;;;;;;2.28;100.00;100452.28;5057792;28;20483;-70
2023/12/05 06:18:48;;;;;;;2.85;1.20;;;;;;;2.33;100.00;100448.50;5055752;28;20024;-70
2023/12/05 06:21:13;;;;;;;3.05;1.20;;;;;;;2.36;100.00;100446.69;5054541;28;20044;-70
2023/12/05 06:23:39;;;;;;;2.85;1.42;;;;;;;2.37;100.00;100443.97;5051745;28;20471;-70
2023/12/05 06:26:05;;;;;;;3.65;0.60;;;;;;;2.38;100.00;100439.66;5052413;28;20101;-70
2023/12/05 06:28:30;;;;;;;2.55;0.93;;;;;;;2.40;100.00;100435.25;5051444;28;20120;-70
2023/12/05 06:30:57;;;;;;;4.47;1.20;;;;;;;2.38;100.00;100431.94;5052395;28;20127;-70
2023/12/05 06:33:23;;;;;;;2.63;1.40;;;;;;;2.34;100.00;100433.91;5055068;28;20036;-69
2023/12/05 06:35:48;;;;;;;2.55;0.90;;;;;;;2.28;100.00;100442.81;5056737;28;20087;-69
2023/12/05 06:38:15;;;;;;;3.90;1.30;;;;;;;2.27;100.00;100438.59;5052083;28;20044;-70
2023/12/05 06:40:40;;;;;;;4.13;1.50;;;;;;;2.24;100.00;100433.63;5051844;28;20044;-70
2023/12/05 06:43:07;;;;;;;3.85;1.08;;;;;;;2.27;100.00;100432.63;5053580;28;20462;-69
2023/12/05 06:45:34;;;;;;;4.25;1.48;;;;;;;2.31;100.00;100434.09;5050432;28;20029;-69
2023/12/05 06:48:03;;;;;;;4.40;1.25;;;;;;;2.38;100.00;100442.22;5054010;28;20053;-69
2023/12/05 06:50:28;;;;;;;2.08;0.90;;;;;;;2.49;100.00;100447.56;5053568;28;20044;-70
2023/12/05 06:52:57;;;;;;;2.50;0.63;;;;;;;2.59;100.00;100444.34;5052285;28;20024;-70
2023/12/05 06:55:24;;;;;;;2.38;0.68;;;;;;;2.67;100.00;100444.69;5054092;28;20031;-69
2023/12/05 06:57:49;;;;;;;1.75;0.50;;;;;;;2.68;100.00;100442.94;5051974;28;20032;-69
2023/12/05 07:00:16;;;;;;;1.45;0.77;;;;;;;2.67;100.00;100451.59;5051804;28;20067;-69
2023/12/05 07:02:41;;;;;;;2.92;0.70;;;;;;;2.68;100.00;100442.94;5053387;28;20043;-69
2023/12/05 07:05:08;;;;;;;2.05;0.77;;;;;;;2.71;100.00;100450.47;5053478;28;20040;-69
2023/12/05 07:07:34;;;;;;;2.33;0.85;;;;;;;2.72;100.00;100439.28;5051060;28;20124;-68
2023/12/05 07:10:00;;;;;;;3.97;0.77;;;;;;;2.70;100.00;100430.00;5053607;28;20066;-68
2023/12/05 07:12:25;;;;;;;2.30;0.70;;;;;;;2.67;100.00;100431.00;5049704;28;20516;-69
2023/12/05 07:14:51;;;;;;;11.18;1.42;;;;;;;2.66;100.00;100426.78;5052260;28;20055;-69
2023/12/05 07:17:17;;;;;;;3.70;1.25;;;;;;;2.63;100.00;100434.69;5052481;28;20032;-69
2023/12/05 07:19:42;;;;;;;2.72;1.25;;;;;;;2.61;100.00;100432.22;5051183;28;20039;-69
2023/12/05 07:22:08;;;;;;;4.72;1.13;;;;;;;2.62;100.00;100433.03;5034748;28;20105;-69
2023/12/05 07:24:33;;;;;;;3.75;1.15;;;;;;;2.62;100.00;100427.88;5052184;28;20965;-69
2023/12/05 07:26:59;;;;;;;5.40;1.50;;;;;;;2.61;100.00;100431.38;5053609;28;20494;-69
2023/12/05 07:29:24;;;;;;;2.63;0.70;;;;;;;2.60;100.00;100430.56;5053234;28;20025;-68
2023/12/05 07:31:50;;;;;;;5.35;0.63;;;;;;;2.59;100.00;100425.50;5051688;28;20126;-68
2023/12/05 07:34:15;;;;;;;4.57;1.13;;;;;;;2.54;100.00;100430.94;5054404;28;20036;-69
2023/12/05 07:36:41;;;;;;;4.18;0.80;;;;;;;2.53;100.00;100436.16;5053852;28;20032;-69
2023/12/05 07:39:09;;;;;;;6.40;1.42;;;;;;;2.51;100.00;100427.72;5058699;28;20032;-69
2023/12/05 07:41:35;;;;;;;5.47;2.33;;;;;;;2.49;100.00;100427.81;5053122;28;20045;-69
2023/12/05 07:44:00;;;;;;;6.50;2.42;;;;;;;2.48;100.00;100430.47;5039829;28;20649;-69
2023/12/05 07:46:26;;;;;;;10.20;2.95;;;;;;;2.49;100.00;100426.97;5051554;28;20040;-70
2023/12/05 07:48:51;;;;;;;8.90;2.50;;;;;;;2.51;100.00;100418.25;5051208;28;20090;-69
2023/12/05 07:51:17;;;;;;;4.15;1.75;;;;;;;2.56;100.00;100415.41;5051148;28;20036;-69
2023/12/05 07:53:45;;;;;;;3.53;1.15;;;;;;;2.62;100.00;100417.59;5050413;28;20489;-69
2023/12/05 07:56:11;;;;;;;3.63;1.10;;;;;;;2.67;100.00;100416.41;5051675;28;20040;-69
2023/12/05 07:58:36;;;;;;;4.15;1.40;;;;;;;2.73;100.00;100415.19;5050362;28;20028;-69
2023/12/05 08:01:02;;;;;;;5.32;1.45;;;;;;;2.76;100.00;100419.31;5051868;28;20033;-69
2023/12/05 08:03:28;;;;;;;4.13;1.25;;;;;;;2.79;100.00;100412.25;5051960;28;20029;-69
2023/12/05 08:05:54;;;;;;;2.50;1.25;;;;;;;2.88;100.00;100403.09;5051173;28;20039;-69
2023/12/05 08:08:20;;;;;;;3.65;0.73;;;;;;;2.95;100.00;100402.59;5050293;28;20036;-69
2023/12/05 08:10:47;;;;;;;1.73;0.50;;;;;;;3.02;100.00;100409.94;5051001;28;20032;-69
2023/12/05 08:13:12;;;;;;;1.10;0.47;;;;;;;3.03;100.00;100401.28;5050575;28;20051;-69
2023/12/05 08:15:38;;;;;;;4.07;1.15;;;;;;;3.04;100.00;100393.47;5051390;28;20033;-68
2023/12/05 08:18:03;;;;;;;3.30;1.05;;;;;;;3.05;100.00;100387.41;5050276;28;20043;-69
2023/12/05 08:20:29;;;;;;;2.88;0.70;;;;;;;3.07;100.00;100387.31;5050852;28;20051;-69
2023/12/05 08:22:54;;;;;;;4.15;0.52;;;;;;;3.05;100.00;100394.31;5053257;28;20071;-69
2023/12/05 08:25:20;;;;;;;2.72;0.93;;;;;;;3.03;100.00;100391.81;5048783;28;20025;-69
2023/12/05 08:27:45;;;;;;;3.08;1.05;;;;;;;3.03;100.00;100393.56;5050910;28;20102;-69
2023/12/05 08:30:11;;;;;;;2.42;0.95;;;;;;;3.06;100.00;100394.22;5050434;28;20024;-69
2023/12/05 08:32:37;;;;;;;4.63;0.68;;;;;;;3.15;100.00;100392.78;5033454;28;20178;-69
2023/12/05 08:35:03;;;;;;;1.52;0.68;;;;;;;3.26;100.00;100392.94;5050919;28;20047;-67
2023/12/05 08:37:31;;;;;;;2.10;0.45;;;;;;;3.29;100.00;100387.59;5050553;28;20188;-69
2023/12/05 08:39:56;;;;;;;1.65;0.52;;;;;;;3.28;100.00;100385.94;5048250;28;20076;-69
2023/12/05 08:42:22;;;;;;;2.65;0.70;;;;;;;3.23;100.00;100386.22;5054384;28;20381;-69
2023/12/05 08:44:47;;;;;;;3.40;0.80;;;;;;;3.23;100.00;100385.41;5031420;28;20063;-69
2023/12/05 08:47:13;;;;;;;2.92;0.73;;;;;;;3.23;100.00;100387.97;5055774;28;20473;-69
2023/12/05 08:49:39;;;;;;;1.73;0.45;;;;;;;3.21;100.00;100384.69;5056018;28;20052;-69
2023/12/05 08:52:07;;;;;;;1.85;0.50;;;;;;;3.22;100.00;100386.31;5050250;28;20036;-69
2023/12/05 08:54:33;;;;;;;2.45;0.70;;;;;;;3.22;100.00;100386.31;5047944;28;20125;-69
2023/12/05 08:56:58;;;;;;;6.20;0.82;;;;;;;3.24;100.00;100389.63;5047051;28;20025;-69
2023/12/05 08:59:24;;;;;;;3.63;0.60;;;;;;;3.25;100.00;100383.56;5049457;28;20078;-69
2023/12/05 09:01:50;;;;;;;1.15;0.40;;;;;;;3.27;100.00;100385.09;5050187;28;20055;-69
2023/12/05 09:04:15;;;;;;;3.70;0.45;;;;;;;3.29;100.00;100378.09;5054202;28;20033;-69
2023/12/05 09:06:41;;;;;;;1.33;0.73;;;;;;;3.38;100.00;100379.22;5052729;28;20047;-69
2023/12/05 09:09:06;;;;;;;4.22;0.77;;;;;;;3.42;100.00;100367.81;5053228;28;20024;-69
2023/12/05 09:11:32;;;;;;;2.83;0.65;;;;;;;3.45;100.00;100361.63;5057421;28;20025;-69
2023/12/05 09:13:58;;;;;;;2.92;0.57;;;;;;;3.46;100.00;100365.84;5063902;28;20450;-69
2023/12/05 09:16:24;;;;;;;1.77;0.57;;;;;;;3.53;100.00;100360.19;5057190;28;20044;-69
2023/12/05 09:18:51;;;;;;;1.92;0.68;;;;;;;3.57;100.00;100356.50;5064436;28;20087;-69
2023/12/05 09:21:16;;;;;;;1.33;0.50;;;;;;;3.64;100.00;100346.59;5052779;28;20036;-69
2023/12/05 09:23:42;;;;;;;5.85;1.23;;;;;;;3.72;100.00;100351.25;5055033;28;20047;-68
2023/12/05 09:26:07;;;;;;;2.85;0.63;;;;;;;3.76;100.00;100353.50;5055200;28;20518;-69
2023/12/05 09:28:34;;;;;;;1.77;0.63;;;;;;;3.84;100.00;100348.63;5053562;28;20040;-69
2023/12/05 09:30:59;;;;;;;3.92;0.70;;;;;;;3.94;100.00;100354.81;5054957;28;20771;-69
2023/12/05 09:33:25;;;;;;;1.98;0.80;;;;;;;4.00;100.00;100349.25;5055718;28;20036;-69
2023/12/05 09:35:50;;;;;;;2.20;1.25;;;;;;;4.06;100.00;100350.56;5058030;28;20024;-69
2023/12/05 09:38:16;;;;;;;1.50;0.40;;;;;;;4.06;100.00;100337.69;5051165;28;20028;-69
2023/12/05 09:40:42;;;;;;;1.45;0.30;;;;;;;4.07;100.00;100341.09;5059205;28;20033;-69
2023/12/05 09:43:08;;;;;;;1.75;0.40;;;;;;;4.07;100.00;100333.34;5068081;28;20116;-69
2023/12/05 09:45:40;;;;;;;2.65;0.65;;;;;;;4.07;100.00;100336.75;5058444;28;20086;-69
2023/12/05 09:48:09;;;;;;;1.80;0.52;;;;;;;4.07;100.00;100339.34;5052628;28;20021;-69
2023/12/05 09:50:37;;;;;;;2.08;0.40;;;;;;;4.09;100.00;100332.31;5051794;28;20033;-69
2023/12/05 09:53:05;;;;;;;1.20;0.50;;;;;;;4.13;100.00;100336.34;5066486;28;20043;-69
2023/12/05 09:55:31;;;;;;;1.20;0.60;;;;;;;4.15;100.00;100328.50;5057344;28;20068;-68
2023/12/05 09:57:57;;;;;;;2.00;0.40;;;;;;;4.14;100.00;100322.50;5059596;28;20119;-69
2023/12/05 10:00:26;;;;;;;4.60;0.63;;;;;;;4.14;100.00;100316.53;5057025;28;20112;-69
2023/12/05 10:02:52;;;;;;;2.42;0.60;;;;;;;4.13;100.00;100323.44;5066378;28;20039;-69
2023/12/05 10:05:20;;;;;;;1.92;0.57;;;;;;;4.12;100.00;100311.47;5064682;28;20033;-68
2023/12/05 10:07:47;;;;;;;3.25;0.40;;;;;;;4.16;100.00;100314.69;5063419;28;20497;-68
2023/12/05 10:10:15;;;;;;;1.00;0.50;;;;;;;4.18;100.00;100300.75;5060017;28;20033;-68
2023/12/05 10:12:41;;;;;;;2.05;0.50;;;;;;;4.18;100.00;100302.50;5064442;28;20102;-68
2023/12/05 10:15:07;;;;;;;1.73;0.57;;;;;;;4.15;100.00;100306.13;5061103;28;20121;-69
2023/12/05 10:17:34;;;;;;;4.25;0.68;;;;;;;4.14;100.00;100299.31;5063015;28;20229;-68
2023/12/05 10:19:59;;;;;;;5.70;1.75;;;;;;;4.12;100.00;100296.00;5058433;28;20414;-68
2023/12/05 10:22:26;;;;;;;14.80;2.63;;;;;;;4.15;100.00;100297.56;5058207;28;20155;-68
2023/12/05 10:24:55;;;;;;;5.20;1.20;;;;;;;4.15;100.00;100297.56;5057352;28;20067;-69
2023/12/05 10:27:20;;;;;;;5.40;1.30;;;;;;;4.17;100.00;100287.97;5058001;28;20032;-69
2023/12/05 10:29:46;;;;;;;1.92;0.55;;;;;;;4.14;100.00;100288.16;5062444;28;20021;-68
2023/12/05 10:32:13;;;;;;;1.88;0.60;;;;;;;4.13;100.00;100279.63;5055051;28;20029;-69
2023/12/05 10:35:01;;;;;;;2.72;1.00;;;;;;;4.16;100.00;100281.16;5060638;28;20020;-69
2023/12/05 10:37:31;;;;;;;4.13;1.40;;;;;;;4.21;100.00;100284.22;5062409;28;20044;-68
2023/12/05 10:39:58;;;;;;;4.70;1.60;;;;;;;4.23;100.00;100270.28;5055321;28;20048;-68
2023/12/05 10:42:30;;;;;;;8.40;2.17;;;;;;;4.28;100.00;100270.78;5057665;28;20033;-68
2023/12/05 10:44:56;;;;;;;8.57;2.97;;;;;;;4.34;100.00;100262.59;5063139;28;20055;-68
2023/12/05 10:47:25;;;;;;;6.53;1.77;;;;;;;4.38;100.00;100268.38;5057741;28;20090;-68
2023/12/05 10:49:50;;;;;;;5.47;1.45;;;;;;;4.41;100.00;100268.16;5059085;28;20036;-68
2023/12/05 10:52:16;;;;;;;3.67;1.40;;;;;;;4.42;100.00;100267.22;5062011;28;20036;-68
2023/12/05 10:54:42;;;;;;;2.95;0.88;;;;;;;4.44;100.00;100262.78;5056943;28;20025;-68
2023/12/05 10:57:10;;;;;;;2.75;1.10;;;;;;;4.43;100.00;100268.84;5057145;28;20051;-68
2023/12/05 10:59:38;;;;;;;0.82;0.40;;;;;;;4.44;100.00;100261.94;5060199;28;20116;-68
2023/12/05 11:02:12;;;;;;;2.33;0.93;;;;;;;4.42;100.00;100261.22;5066681;28;20034;-68
2023/12/05 11:04:39;;;;;;;2.60;0.35;;;;;;;4.42;100.00;100258.66;5058142;28;20039;-68
2023/12/05 11:07:04;;;;;;;2.60;0.57;;;;;;;4.40;100.00;100251.03;5064651;28;20043;-68
2023/12/05 11:09:29;;;;;;;2.10;0.40;;;;;;;4.40;100.00;100252.78;5059144;28;20028;-69
2023/12/05 11:11:56;;;;;;;2.53;0.82;;;;;;;4.41;100.00;100251.84;5059752;28;20044;-68
2023/12/05 11:14:24;;;;;;;1.05;0.45;;;;;;;4.41;100.00;100242.34;5052285;28;20478;-68
2023/12/05 11:16:53;;;;;;;1.80;0.60;;;;;;;4.44;100.00;100246.47;5056293;28;20609;-68
2023/12/05 11:19:37;;;;;;;2.33;0.52;;;;;;;4.47;100.00;100239.31;5057444;28;20030;-68